Marsland, Nebraska
Current Conditions -  °F | °C
As of 9:53 AM on Friday 24 Oct 2014 (Local Time) from KCDR Reporting Station
Clear Clear  
Wind Chill: 63°   Ceiling: Unl
Heat Index: 63°   Visibility: 10mi
Dew Point: 36°   Wind: 8mph
Humidity: 37%   Direction: 250°WSW
Pressure: 30.04"   Gusts: NA
Location:  42.44°N, 103.3°W
Report Text: KCDR 241553Z AUTO 25007KT 10SM CLR 17/02 A3004 RMK AO2 SLP173 T01720022
Loading
Personal Weather Stations






























Interactive Weather Map New forecast layout! Learn more

10-Day Weather Forecast

Advertisements
Track Severe Weather on mobile